Time;durP1;ratioP1;P1;durP2;ratioP2;P2;SDS_P1;SDS_P2;PMS_P1;PMS_P2;Temp;Humidity;BMP_temperature;BMP_pressure;BME280_temperature;BME280_humidity;BME280_pressure;Samples;Min_cycle;Max_cycle;Signal;HPM_P1;HPM_P2
2022/09/21 00:00:51;;;;;;;3.17;1.40;;;;;;;;;;5104419;28;20024;-79
2022/09/21 00:03:17;;;;;;;4.03;1.60;;;;;;;;;;5103692;28;20020;-79
2022/09/21 00:05:43;;;;;;;4.72;1.90;;;;;;;;;;5106263;28;20028;-80
2022/09/21 00:08:11;;;;;;;4.68;1.90;;;;;;;;;;5106768;28;20123;-80
2022/09/21 00:10:37;;;;;;;4.30;1.63;;;;;;;;;;5092830;28;20076;-80
2022/09/21 00:13:03;;;;;;;4.22;1.90;;;;;;;;;;5112076;28;20032;-79
2022/09/21 00:15:30;;;;;;;3.90;1.70;;;;;;;;;;5088212;28;20032;-80
2022/09/21 00:17:57;;;;;;;5.55;1.98;;;;;;;;;;5106966;28;20024;-79
2022/09/21 00:20:23;;;;;;;4.70;1.80;;;;;;;;;;5107560;28;20079;-81
2022/09/21 00:22:50;;;;;;;4.10;1.45;;;;;;;;;;5111069;28;20039;-81
2022/09/21 00:25:16;;;;;;;4.10;1.52;;;;;;;;;;5103614;28;20103;-81
2022/09/21 00:27:42;;;;;;;3.80;1.67;;;;;;;;;;5106882;28;20024;-81
2022/09/21 00:30:09;;;;;;;4.53;1.80;;;;;;;;;;5110092;28;20023;-80
2022/09/21 00:32:36;;;;;;;3.28;1.38;;;;;;;;;;5114843;28;20062;-80
2022/09/21 00:35:03;;;;;;;6.43;1.55;;;;;;;;;;5096203;28;20480;-79
2022/09/21 00:37:30;;;;;;;4.50;1.77;;;;;;;;;;5105354;28;20109;-80
2022/09/21 00:39:56;;;;;;;4.57;1.98;;;;;;;;;;5111244;28;20109;-80
2022/09/21 00:42:23;;;;;;;4.68;1.85;;;;;;;;;;5115989;28;20027;-80
2022/09/21 00:44:50;;;;;;;5.00;2.08;;;;;;;;;;5118616;28;20032;-80
2022/09/21 00:47:16;;;;;;;4.35;1.60;;;;;;;;;;5089571;28;20020;-79
2022/09/21 00:49:44;;;;;;;4.15;1.85;;;;;;;;;;5111856;28;20023;-79
2022/09/21 00:52:13;;;;;;;4.35;1.80;;;;;;;;;;5119277;28;20028;-80
2022/09/21 00:54:44;;;;;;;4.15;1.85;;;;;;;;;;5106947;28;20044;-79
2022/09/21 00:57:11;;;;;;;4.47;2.00;;;;;;;;;;5105152;28;20020;-80
2022/09/21 00:59:38;;;;;;;4.93;1.85;;;;;;;;;;5127912;28;20028;-81
2022/09/21 01:02:05;;;;;;;5.45;1.80;;;;;;;;;;5126630;28;20024;-79
2022/09/21 01:04:32;;;;;;;4.18;1.63;;;;;;;;;;5108518;28;20028;-81
2022/09/21 01:06:59;;;;;;;3.40;1.42;;;;;;;;;;5109127;28;20024;-80
2022/09/21 01:09:47;;;;;;;3.45;1.73;;;;;;;;;;5123471;28;20050;-80
2022/09/21 01:12:48;;;;;;;4.30;1.70;;;;;;;;;;5098021;28;20036;-80
2022/09/21 01:18:38;;;;;;;4.95;2.08;;;;;;;;;;5054819;28;20040;-80
2022/09/21 01:21:33;;;;;;;3.97;1.90;;;;;;;;;;5013833;28;20044;-81
2022/09/21 01:24:33;;;;;;;6.50;2.25;;;;;;;;;;4986353;28;20613;-81
2022/09/21 01:33:35;;;;;;;3.22;1.50;;;;;;;;;;4922621;29;19918;-81
2022/09/21 01:36:35;;;;;;;5.65;2.03;;;;;;;;;;4848248;29;20065;-81
2022/09/21 01:42:39;;;;;;;7.20;2.30;;;;;;;;;;4848588;29;20041;-80
2022/09/21 01:45:06;;;;;;;4.68;1.70;;;;;;;;;;4849276;29;20050;-81
2022/09/21 01:47:34;;;;;;;5.55;2.13;;;;;;;;;;4872289;29;20033;-80
2022/09/21 01:50:01;;;;;;;3.70;1.50;;;;;;;;;;4878668;29;20545;-79
2022/09/21 01:52:31;;;;;;;4.22;1.88;;;;;;;;;;4870644;29;20048;-81
2022/09/21 01:55:06;;;;;;;4.43;1.80;;;;;;;;;;4868798;29;20072;-80
2022/09/21 01:57:35;;;;;;;4.00;1.63;;;;;;;;;;4913593;28;20043;-80
2022/09/21 02:00:03;;;;;;;4.55;1.95;;;;;;;;;;4978607;28;20531;-80
2022/09/21 02:02:35;;;;;;;4.38;1.67;;;;;;;;;;4965274;29;20146;-80
2022/09/21 02:05:01;;;;;;;4.00;1.70;;;;;;;;;;4964359;28;20035;-80
2022/09/21 02:07:27;;;;;;;4.68;1.85;;;;;;;;;;5013255;28;20401;-80
2022/09/21 02:09:55;;;;;;;4.32;1.80;;;;;;;;;;5048329;28;20033;-80
2022/09/21 02:12:21;;;;;;;4.80;2.30;;;;;;;;;;5075990;28;20032;-79
2022/09/21 02:14:48;;;;;;;3.85;1.70;;;;;;;;;;5105317;28;20057;-79
2022/09/21 02:17:36;;;;;;;4.28;1.88;;;;;;;;;;5108689;28;20023;-79
2022/09/21 02:20:02;;;;;;;4.57;2.13;;;;;;;;;;5105409;28;20028;-80
2022/09/21 02:22:32;;;;;;;4.38;2.00;;;;;;;;;;5105625;28;20024;-80
2022/09/21 02:25:13;;;;;;;4.18;1.80;;;;;;;;;;5106489;28;20103;-81
2022/09/21 02:27:51;;;;;;;4.32;2.08;;;;;;;;;;5106131;28;20051;-80
2022/09/21 02:30:18;;;;;;;5.25;1.83;;;;;;;;;;5108080;28;20139;-79
2022/09/21 02:32:50;;;;;;;4.85;1.88;;;;;;;;;;5105579;28;20085;-79
2022/09/21 02:35:19;;;;;;;5.97;2.28;;;;;;;;;;5104968;28;20035;-79
2022/09/21 02:37:58;;;;;;;3.80;1.45;;;;;;;;;;5104411;28;20023;-80
2022/09/21 02:40:24;;;;;;;3.83;1.63;;;;;;;;;;5102729;28;20016;-80
2022/09/21 02:42:56;;;;;;;4.00;1.88;;;;;;;;;;5103910;28;20055;-80
2022/09/21 02:45:32;;;;;;;4.65;2.15;;;;;;;;;;5095331;28;20028;-80
2022/09/21 02:48:04;;;;;;;4.75;1.90;;;;;;;;;;5080385;28;20053;-80
2022/09/21 02:50:36;;;;;;;5.20;2.33;;;;;;;;;;5102360;28;20028;-80
2022/09/21 02:53:04;;;;;;;4.43;1.83;;;;;;;;;;5098003;28;20056;-80
2022/09/21 02:55:31;;;;;;;5.00;2.00;;;;;;;;;;5096794;28;20503;-80
2022/09/21 02:57:58;;;;;;;3.55;1.67;;;;;;;;;;5096733;28;20050;-79
2022/09/21 03:00:24;;;;;;;4.28;1.52;;;;;;;;;;5104299;28;20067;-79
2022/09/21 03:02:50;;;;;;;4.28;1.88;;;;;;;;;;5097989;28;20028;-79
2022/09/21 03:05:16;;;;;;;4.45;1.88;;;;;;;;;;5098819;28;20027;-80
2022/09/21 03:07:42;;;;;;;4.03;1.70;;;;;;;;;;5079555;28;20024;-79
2022/09/21 03:10:09;;;;;;;3.17;1.48;;;;;;;;;;5097906;28;20028;-79
2022/09/21 03:12:35;;;;;;;4.20;1.70;;;;;;;;;;5097919;28;20042;-80
2022/09/21 03:15:01;;;;;;;4.65;2.35;;;;;;;;;;5098640;28;20046;-80
2022/09/21 03:17:27;;;;;;;3.45;1.60;;;;;;;;;;5097147;28;20063;-80
2022/09/21 03:19:53;;;;;;;4.07;1.60;;;;;;;;;;5100518;28;20380;-80
2022/09/21 03:22:20;;;;;;;5.18;2.13;;;;;;;;;;5098713;28;20031;-79
2022/09/21 03:24:46;;;;;;;4.00;1.70;;;;;;;;;;5096549;28;20342;-80
2022/09/21 03:27:13;;;;;;;4.35;2.10;;;;;;;;;;5097670;28;20025;-79
2022/09/21 03:29:39;;;;;;;3.72;1.70;;;;;;;;;;5098237;28;20024;-80
2022/09/21 03:32:06;;;;;;;5.40;1.60;;;;;;;;;;5102964;28;20055;-80
2022/09/21 03:34:33;;;;;;;4.07;1.90;;;;;;;;;;5096875;28;20049;-80
2022/09/21 03:36:59;;;;;;;4.50;1.73;;;;;;;;;;5093373;28;20043;-80
2022/09/21 03:39:25;;;;;;;4.38;1.98;;;;;;;;;;5100661;28;20024;-79
2022/09/21 03:41:54;;;;;;;4.45;1.77;;;;;;;;;;5087752;28;20030;-80
2022/09/21 03:44:21;;;;;;;4.10;1.67;;;;;;;;;;5091595;28;20017;-80
2022/09/21 03:46:47;;;;;;;4.45;1.95;;;;;;;;;;5104016;28;20077;-80
2022/09/21 03:49:13;;;;;;;4.30;1.95;;;;;;;;;;5105763;28;20427;-79
2022/09/21 03:51:39;;;;;;;5.35;2.15;;;;;;;;;;5117290;28;20024;-80
2022/09/21 03:54:05;;;;;;;4.30;1.90;;;;;;;;;;5106167;28;20125;-80
2022/09/21 03:56:31;;;;;;;3.45;1.65;;;;;;;;;;5113960;28;20046;-80
2022/09/21 03:58:57;;;;;;;5.10;2.03;;;;;;;;;;5099665;28;20040;-80
2022/09/21 04:01:23;;;;;;;4.80;2.10;;;;;;;;;;5118595;28;20027;-79
2022/09/21 04:03:49;;;;;;;4.85;2.20;;;;;;;;;;5114202;28;20060;-80
2022/09/21 04:06:15;;;;;;;5.32;2.58;;;;;;;;;;5110067;28;20027;-80
2022/09/21 04:08:41;;;;;;;4.90;1.85;;;;;;;;;;5109237;28;20489;-81
2022/09/21 04:11:11;;;;;;;4.97;2.50;;;;;;;;;;5091075;28;20023;-79
2022/09/21 04:13:37;;;;;;;3.95;1.90;;;;;;;;;;5112123;28;20028;-80
2022/09/21 04:16:03;;;;;;;4.82;2.40;;;;;;;;;;5112345;28;20012;-80
2022/09/21 04:18:31;;;;;;;4.68;1.98;;;;;;;;;;5110528;28;20047;-81
2022/09/21 04:20:57;;;;;;;4.00;1.70;;;;;;;;;;5100639;28;20021;-80
2022/09/21 04:23:23;;;;;;;4.75;2.30;;;;;;;;;;5111917;28;20074;-80
2022/09/21 04:25:52;;;;;;;3.63;1.73;;;;;;;;;;5111218;28;20028;-81
2022/09/21 04:28:18;;;;;;;5.10;2.05;;;;;;;;;;5125153;28;20083;-81
2022/09/21 04:30:44;;;;;;;4.10;2.10;;;;;;;;;;5105713;28;20051;-81
2022/09/21 04:33:10;;;;;;;5.32;2.20;;;;;;;;;;5110064;28;20036;-81
2022/09/21 04:35:36;;;;;;;5.57;2.63;;;;;;;;;;5109703;28;20028;-80
2022/09/21 04:38:02;;;;;;;4.38;2.00;;;;;;;;;;5112271;28;20024;-79
2022/09/21 04:40:28;;;;;;;4.47;2.00;;;;;;;;;;5122536;28;20024;-80
2022/09/21 04:42:54;;;;;;;5.10;2.20;;;;;;;;;;5109562;28;20459;-80
2022/09/21 04:45:21;;;;;;;5.53;3.10;;;;;;;;;;5109537;28;20028;-80
2022/09/21 04:47:47;;;;;;;4.68;2.50;;;;;;;;;;5108057;28;20397;-80
2022/09/21 04:50:13;;;;;;;4.43;2.05;;;;;;;;;;5112957;28;20043;-80
2022/09/21 04:52:47;;;;;;;4.80;2.28;;;;;;;;;;5106689;28;20031;-81
2022/09/21 05:02:15;;;;;;;5.30;2.42;;;;;;;;;;4961707;28;20601;-81
2022/09/21 05:08:02;;;;;;;5.30;2.63;;;;;;;;;;4923933;29;20047;-81
2022/09/21 05:13:24;;;;;;;4.93;2.35;;;;;;;;;;4919482;29;20047;-81
2022/09/21 05:15:59;;;;;;;8.60;5.88;;;;;;;;;;4930197;29;20038;-81
2022/09/21 05:18:58;;;;;;;6.32;3.28;;;;;;;;;;4923544;29;20040;-81
2022/09/21 05:27:52;;;;;;;5.40;2.42;;;;;;;;;;4851016;29;20033;-82
2022/09/21 05:31:08;;;;;;;6.72;2.83;;;;;;;;;;4851215;29;20030;-81
2022/09/21 05:34:29;;;;;;;7.43;3.10;;;;;;;;;;4845908;29;20037;-81
2022/09/21 05:42:59;;;;;;;5.65;3.03;;;;;;;;;;4810844;29;20045;-81
2022/09/21 05:49:19;;;;;;;5.57;2.40;;;;;;;;;;4811252;29;20080;-82
2022/09/21 05:52:06;;;;;;;5.78;2.67;;;;;;;;;;4828215;29;20049;-81
2022/09/21 05:54:52;;;;;;;5.90;3.28;;;;;;;;;;4830472;29;20103;-82
2022/09/21 05:57:42;;;;;;;5.68;3.33;;;;;;;;;;4822528;29;20045;-82
2022/09/21 06:00:11;;;;;;;6.68;2.90;;;;;;;;;;4881837;29;20038;-80
2022/09/21 06:02:56;;;;;;;6.55;3.22;;;;;;;;;;4881327;29;20128;-81
2022/09/21 06:05:22;;;;;;;5.38;2.95;;;;;;;;;;4891652;29;20029;-81
2022/09/21 06:07:49;;;;;;;6.10;2.75;;;;;;;;;;4892193;29;20040;-82
2022/09/21 06:10:15;;;;;;;5.88;2.78;;;;;;;;;;4875712;29;20045;-81
2022/09/21 06:12:41;;;;;;;5.75;2.25;;;;;;;;;;4902315;29;20104;-80
2022/09/21 06:15:10;;;;;;;4.93;2.60;;;;;;;;;;4959914;28;20043;-81
2022/09/21 06:17:36;;;;;;;6.35;2.65;;;;;;;;;;4963264;29;20035;-82
2022/09/21 06:20:02;;;;;;;7.70;2.58;;;;;;;;;;4979187;28;20035;-82
2022/09/21 06:22:30;;;;;;;7.07;3.03;;;;;;;;;;5000232;28;20117;-81
2022/09/21 06:24:56;;;;;;;5.30;2.58;;;;;;;;;;5063529;28;20025;-82
2022/09/21 06:27:22;;;;;;;6.25;3.00;;;;;;;;;;5061974;28;20029;-81
2022/09/21 06:29:48;;;;;;;6.50;3.47;;;;;;;;;;5054218;28;20030;-82
2022/09/21 06:32:14;;;;;;;5.38;2.60;;;;;;;;;;5044436;28;20059;-81
2022/09/21 06:34:41;;;;;;;5.50;2.63;;;;;;;;;;5052585;28;20104;-81
2022/09/21 06:37:07;;;;;;;6.63;3.63;;;;;;;;;;5059857;28;20064;-82
2022/09/21 06:39:34;;;;;;;5.43;2.72;;;;;;;;;;5045467;28;20102;-80
2022/09/21 06:42:00;;;;;;;6.05;2.97;;;;;;;;;;5063468;28;20103;-82
2022/09/21 06:44:28;;;;;;;6.43;3.30;;;;;;;;;;5062204;28;20052;-81
2022/09/21 06:46:54;;;;;;;6.63;3.38;;;;;;;;;;5061927;28;20024;-82
2022/09/21 06:49:20;;;;;;;7.00;3.75;;;;;;;;;;5050362;28;20094;-80
2022/09/21 06:51:49;;;;;;;6.22;3.20;;;;;;;;;;5064936;28;20040;-79
2022/09/21 06:54:16;;;;;;;6.32;3.08;;;;;;;;;;5061641;28;20025;-79
2022/09/21 06:56:43;;;;;;;6.38;3.75;;;;;;;;;;5062376;28;20040;-80
2022/09/21 06:59:09;;;;;;;6.75;3.40;;;;;;;;;;5058999;28;20064;-81
2022/09/21 07:01:35;;;;;;;6.93;2.88;;;;;;;;;;5079754;28;20089;-83
2022/09/21 07:04:01;;;;;;;6.32;3.42;;;;;;;;;;5100396;28;20103;-81
2022/09/21 07:06:28;;;;;;;6.22;3.28;;;;;;;;;;5101670;28;20024;-82
2022/09/21 07:08:54;;;;;;;5.57;3.00;;;;;;;;;;5101585;28;20028;-82
2022/09/21 07:11:22;;;;;;;6.75;3.35;;;;;;;;;;5082624;28;20036;-81
2022/09/21 07:13:49;;;;;;;7.28;3.90;;;;;;;;;;5101869;28;20020;-80
2022/09/21 07:16:15;;;;;;;6.63;2.97;;;;;;;;;;5100185;28;20032;-80
2022/09/21 07:18:41;;;;;;;5.70;2.55;;;;;;;;;;5099938;28;20024;-83
2022/09/21 07:21:08;;;;;;;5.50;3.00;;;;;;;;;;5101177;28;20024;-81
2022/09/21 07:23:35;;;;;;;5.32;2.80;;;;;;;;;;5100808;28;20028;-82
2022/09/21 07:26:02;;;;;;;7.05;2.83;;;;;;;;;;5085211;28;20159;-80
2022/09/21 07:28:28;;;;;;;5.50;3.15;;;;;;;;;;5082925;28;20023;-79
2022/09/21 07:30:58;;;;;;;7.22;2.85;;;;;;;;;;5105506;28;20024;-81
2022/09/21 07:33:51;;;;;;;8.98;2.75;;;;;;;;;;5093045;28;20035;-81
2022/09/21 07:37:02;;;;;;;6.93;3.13;;;;;;;;;;5020224;28;20591;-82
2022/09/21 07:40:07;;;;;;;5.40;2.90;;;;;;;;;;4999647;28;20514;-82
2022/09/21 07:42:47;;;;;;;6.50;2.80;;;;;;;;;;5001450;28;20566;-82
2022/09/21 07:45:16;;;;;;;7.35;3.50;;;;;;;;;;5000516;28;20057;-83
2022/09/21 07:48:12;;;;;;;5.93;3.50;;;;;;;;;;5003711;28;20038;-81
2022/09/21 07:51:07;;;;;;;8.65;3.72;;;;;;;;;;5007219;28;20114;-83
2022/09/21 08:00:27;;;;;;;5.90;2.80;;;;;;;;;;4955813;28;20303;-81
2022/09/21 08:09:29;;;;;;;6.78;3.40;;;;;;;;;;4914414;29;20148;-81
2022/09/21 08:11:57;;;;;;;6.65;3.28;;;;;;;;;;4917102;29;20048;-79
2022/09/21 08:14:23;;;;;;;6.15;3.13;;;;;;;;;;4945435;29;20500;-80
2022/09/21 08:16:49;;;;;;;6.40;3.22;;;;;;;;;;4948255;29;20047;-80
2022/09/21 08:19:16;;;;;;;6.18;3.60;;;;;;;;;;4955305;28;20550;-82
2022/09/21 08:21:42;;;;;;;5.75;3.45;;;;;;;;;;4938312;29;20023;-80
2022/09/21 08:24:08;;;;;;;6.15;3.05;;;;;;;;;;4954999;28;20043;-81
2022/09/21 08:26:35;;;;;;;6.82;3.13;;;;;;;;;;4958027;28;20031;-80
2022/09/21 08:29:01;;;;;;;6.50;3.15;;;;;;;;;;4958762;28;20033;-81
2022/09/21 08:31:27;;;;;;;5.95;3.08;;;;;;;;;;4976952;28;20035;-81
2022/09/21 08:33:55;;;;;;;6.13;3.17;;;;;;;;;;4959753;28;20037;-83
2022/09/21 08:36:21;;;;;;;6.72;3.40;;;;;;;;;;4990120;28;20036;-81
2022/09/21 08:38:48;;;;;;;6.15;3.08;;;;;;;;;;5067467;28;20032;-81
2022/09/21 08:41:32;;;;;;;5.75;3.08;;;;;;;;;;5067334;28;20032;-83
2022/09/21 08:47:29;;;;;;;4.93;2.58;;;;;;;;;;5083718;28;20067;-81
2022/09/21 08:50:36;;;;;;;5.28;2.83;;;;;;;;;;5082455;28;20032;-82
2022/09/21 08:53:56;;;;;;;6.53;3.00;;;;;;;;;;5082322;28;20036;-80
2022/09/21 08:56:24;;;;;;;5.18;2.83;;;;;;;;;;5063547;28;20025;-81
2022/09/21 08:58:50;;;;;;;4.90;2.90;;;;;;;;;;5066575;28;20545;-80
2022/09/21 09:01:22;;;;;;;5.40;3.00;;;;;;;;;;5087599;28;20044;-81
2022/09/21 09:04:16;;;;;;;5.63;3.65;;;;;;;;;;5082436;28;20048;-81
2022/09/21 09:07:29;;;;;;;5.90;3.00;;;;;;;;;;5081776;28;20032;-81
2022/09/21 09:10:20;;;;;;;5.25;2.92;;;;;;;;;;5063798;28;20032;-82
2022/09/21 09:13:00;;;;;;;6.32;2.80;;;;;;;;;;5079023;28;20470;-81
2022/09/21 09:15:45;;;;;;;6.13;3.58;;;;;;;;;;5074169;28;20036;-81
2022/09/21 09:18:32;;;;;;;6.07;3.08;;;;;;;;;;5083084;28;20056;-83
2022/09/21 09:21:07;;;;;;;5.72;2.97;;;;;;;;;;5082575;28;20578;-82
2022/09/21 09:23:32;;;;;;;;;;;;;;;;;;5082297;28;20491;-82
2022/09/21 09:26:09;;;;;;;5.53;2.60;;;;;;;;;;5084231;28;19995;-82
2022/09/21 09:28:54;;;;;;;5.43;2.85;;;;;;;;;;5074192;28;20024;-82
2022/09/21 09:31:49;;;;;;;5.40;2.58;;;;;;;;;;5036993;28;20037;-81
2022/09/21 09:52:48;;;;;;;5.25;2.53;;;;;;;;;;4878457;29;20103;-81
2022/09/21 09:55:14;;;;;;;5.30;2.50;;;;;;;;;;4885063;29;20132;-81
2022/09/21 09:57:41;;;;;;;4.88;2.50;;;;;;;;;;4886980;29;20494;-80
2022/09/21 10:00:13;;;;;;;5.63;2.47;;;;;;;;;;4884584;29;20142;-80
2022/09/21 10:03:05;;;;;;;5.07;2.58;;;;;;;;;;4883469;29;20048;-81
2022/09/21 10:05:33;;;;;;;4.63;2.50;;;;;;;;;;4881238;29;20205;-80
2022/09/21 10:07:59;;;;;;;5.10;2.67;;;;;;;;;;4883656;29;20556;-80
2022/09/21 10:10:28;;;;;;;5.75;2.70;;;;;;;;;;4909216;29;20044;-80
2022/09/21 10:12:55;;;;;;;4.82;2.47;;;;;;;;;;4977388;28;20034;-80
2022/09/21 10:15:26;;;;;;;4.30;2.20;;;;;;;;;;5015661;28;20077;-80
2022/09/21 10:18:06;;;;;;;4.63;2.97;;;;;;;;;;5036786;28;20500;-82
2022/09/21 10:20:32;;;;;;;3.95;2.10;;;;;;;;;;5078549;28;20063;-80
2022/09/21 10:23:04;;;;;;;4.85;2.50;;;;;;;;;;5080151;28;20021;-82
2022/09/21 10:25:45;;;;;;;5.40;2.47;;;;;;;;;;5076232;28;20246;-82
2022/09/21 10:28:28;;;;;;;5.55;2.40;;;;;;;;;;5082021;28;20029;-82
2022/09/21 10:31:19;;;;;;;5.68;2.90;;;;;;;;;;5089267;28;20081;-81
2022/09/21 10:33:53;;;;;;;4.65;2.05;;;;;;;;;;5088430;28;20076;-81
2022/09/21 10:36:54;;;;;;;4.13;1.90;;;;;;;;;;5050289;28;20036;-81
2022/09/21 10:40:04;;;;;;;3.58;1.58;;;;;;;;;;5048421;28;20044;-81
2022/09/21 10:43:12;;;;;;;4.47;2.20;;;;;;;;;;4984220;28;20043;-80
2022/09/21 10:46:11;;;;;;;3.67;1.48;;;;;;;;;;4956059;28;20035;-82
2022/09/21 10:49:19;;;;;;;4.82;1.58;;;;;;;;;;4981403;28;20256;-81
2022/09/21 10:51:51;;;;;;;2.70;1.23;;;;;;;;;;4963613;28;20039;-81
2022/09/21 10:54:55;;;;;;;3.05;1.17;;;;;;;;;;4974447;28;20038;-81
2022/09/21 10:57:33;;;;;;;3.05;1.20;;;;;;;;;;4982645;28;20126;-81
2022/09/21 11:00:34;;;;;;;3.35;1.30;;;;;;;;;;4975509;28;20043;-82
2022/09/21 11:03:03;;;;;;;2.63;1.00;;;;;;;;;;4939500;29;20124;-82
2022/09/21 11:05:34;;;;;;;4.18;1.50;;;;;;;;;;4940881;29;20110;-81
2022/09/21 11:08:12;;;;;;;3.05;1.08;;;;;;;;;;4937257;29;20039;-81
2022/09/21 11:17:42;;;;;;;3.42;1.30;;;;;;;;;;4997489;28;20161;-81
2022/09/21 11:24:02;;;;;;;3.10;1.30;;;;;;;;;;4924728;29;20039;-80
2022/09/21 11:27:17;;;;;;;3.10;1.20;;;;;;;;;;4921011;29;20032;-81
2022/09/21 11:30:07;;;;;;;3.08;1.10;;;;;;;;;;4941088;29;20077;-81
2022/09/21 11:33:01;;;;;;;5.10;1.20;;;;;;;;;;4931768;29;20035;-81
2022/09/21 11:35:47;;;;;;;2.30;1.02;;;;;;;;;;4936709;29;20044;-81
2022/09/21 11:39:02;;;;;;;2.83;1.10;;;;;;;;;;4979473;28;20031;-80
2022/09/21 11:41:48;;;;;;;2.80;1.05;;;;;;;;;;4935444;29;20060;-81
2022/09/21 11:44:48;;;;;;;2.47;1.25;;;;;;;;;;4945812;28;20128;-80
2022/09/21 11:47:21;;;;;;;2.90;1.05;;;;;;;;;;4955817;28;20038;-81
2022/09/21 11:50:38;;;;;;;3.40;1.17;;;;;;;;;;4949968;28;20063;-82
2022/09/21 11:53:24;;;;;;;2.88;1.20;;;;;;;;;;4919499;29;20036;-80
2022/09/21 11:56:07;;;;;;;2.33;1.00;;;;;;;;;;4904466;29;20064;-82
2022/09/21 11:59:05;;;;;;;2.30;0.90;;;;;;;;;;4917730;29;20659;-80
2022/09/21 12:01:47;;;;;;;2.40;1.00;;;;;;;;;;4917982;29;20788;-81
2022/09/21 12:04:19;;;;;;;2.88;0.80;;;;;;;;;;4909961;29;20047;-81
2022/09/21 12:06:53;;;;;;;2.13;0.90;;;;;;;;;;4926834;29;20095;-81
2022/09/21 12:09:19;;;;;;;1.85;0.80;;;;;;;;;;4930210;29;20127;-80
2022/09/21 12:11:47;;;;;;;1.77;0.70;;;;;;;;;;4914941;29;20039;-82
2022/09/21 12:14:33;;;;;;;3.20;0.90;;;;;;;;;;4916956;29;20020;-81
2022/09/21 12:17:05;;;;;;;2.90;0.85;;;;;;;;;;4969799;28;20482;-81
2022/09/21 12:19:42;;;;;;;2.27;1.10;;;;;;;;;;4992885;28;20053;-81
2022/09/21 12:22:11;;;;;;;3.03;1.30;;;;;;;;;;5000456;28;20316;-82
2022/09/21 12:24:42;;;;;;;2.90;1.30;;;;;;;;;;4999153;28;20025;-81
2022/09/21 12:27:11;;;;;;;4.63;1.40;;;;;;;;;;4993606;28;20542;-81
2022/09/21 12:29:42;;;;;;;3.10;1.38;;;;;;;;;;5006385;28;20042;-81
2022/09/21 12:32:20;;;;;;;2.80;1.17;;;;;;;;;;5050656;28;20029;-80
2022/09/21 12:34:49;;;;;;;3.40;1.33;;;;;;;;;;5047864;28;20034;-81
2022/09/21 12:37:22;;;;;;;3.53;1.30;;;;;;;;;;5020644;28;20519;-81
2022/09/21 12:39:58;;;;;;;2.85;1.23;;;;;;;;;;5028998;28;20026;-80
2022/09/21 12:42:38;;;;;;;3.60;1.40;;;;;;;;;;5038021;28;20061;-80
2022/09/21 12:45:13;;;;;;;3.03;1.25;;;;;;;;;;5016803;28;20053;-83
2022/09/21 12:47:59;;;;;;;3.53;1.42;;;;;;;;;;5086453;28;20129;-80
2022/09/21 12:50:27;;;;;;;3.50;1.70;;;;;;;;;;5098500;28;20028;-81
2022/09/21 12:52:54;;;;;;;4.35;2.00;;;;;;;;;;5098173;28;20024;-81
2022/09/21 12:55:36;;;;;;;4.53;1.92;;;;;;;;;;5095569;28;20491;-80
2022/09/21 12:58:17;;;;;;;4.40;2.13;;;;;;;;;;5079137;28;20035;-81
2022/09/21 13:01:01;;;;;;;4.07;2.00;;;;;;;;;;5098439;28;20031;-80
2022/09/21 13:03:32;;;;;;;3.90;1.80;;;;;;;;;;5080297;28;20428;-81
2022/09/21 13:06:10;;;;;;;3.90;2.10;;;;;;;;;;5099300;28;20024;-80
2022/09/21 13:08:38;;;;;;;4.28;1.90;;;;;;;;;;5097614;28;20073;-81
2022/09/21 13:11:06;;;;;;;4.68;1.95;;;;;;;;;;5088685;28;20029;-81
2022/09/21 13:13:35;;;;;;;4.22;2.00;;;;;;;;;;5078233;28;20128;-81
2022/09/21 13:16:03;;;;;;;2.97;1.30;;;;;;;;;;5075499;28;20114;-79
2022/09/21 13:18:33;;;;;;;4.53;1.80;;;;;;;;;;5098274;28;20562;-80
2022/09/21 13:21:00;;;;;;;6.38;2.17;;;;;;;;;;5098167;28;20078;-83
2022/09/21 13:23:49;;;;;;;4.45;1.90;;;;;;;;;;5078868;28;20020;-81
2022/09/21 13:26:29;;;;;;;5.10;3.10;;;;;;;;;;5081979;28;20052;-81
2022/09/21 13:28:55;;;;;;;4.70;2.25;;;;;;;;;;5075962;28;20024;-81
2022/09/21 13:31:40;;;;;;;4.15;2.13;;;;;;;;;;5097049;28;20488;-81
2022/09/21 13:34:15;;;;;;;4.68;2.10;;;;;;;;;;5098881;28;20077;-80
2022/09/21 13:36:42;;;;;;;4.45;2.05;;;;;;;;;;5098727;28;20511;-80
2022/09/21 13:39:08;;;;;;;4.97;2.22;;;;;;;;;;5095632;28;20046;-81
2022/09/21 13:41:36;;;;;;;5.18;2.17;;;;;;;;;;5081213;28;20024;-80
2022/09/21 13:44:17;;;;;;;5.32;2.70;;;;;;;;;;5096341;28;20020;-81
2022/09/21 13:46:43;;;;;;;4.15;2.15;;;;;;;;;;5095904;28;20366;-81
2022/09/21 13:49:09;;;;;;;4.40;2.08;;;;;;;;;;5096451;28;20035;-80
2022/09/21 13:51:49;;;;;;;4.43;2.30;;;;;;;;;;5096875;28;20028;-83
2022/09/21 13:54:15;;;;;;;4.82;2.35;;;;;;;;;;5062575;28;20032;-80
2022/09/21 13:56:43;;;;;;;4.85;2.38;;;;;;;;;;5076003;28;20020;-81
2022/09/21 13:59:19;;;;;;;4.35;2.10;;;;;;;;;;5078838;28;20024;-81
2022/09/21 14:01:45;;;;;;;4.97;2.45;;;;;;;;;;5096990;28;20142;-81
2022/09/21 14:04:17;;;;;;;4.35;2.30;;;;;;;;;;5096733;28;20020;-81
2022/09/21 14:06:46;;;;;;;4.50;2.25;;;;;;;;;;5096427;28;20023;-80
2022/09/21 14:09:24;;;;;;;4.60;2.38;;;;;;;;;;5116896;28;20034;-80
2022/09/21 14:11:58;;;;;;;4.63;2.70;;;;;;;;;;5085128;28;20054;-79
2022/09/21 14:14:28;;;;;;;5.00;2.40;;;;;;;;;;5085618;28;20025;-81
2022/09/21 14:16:57;;;;;;;5.75;2.67;;;;;;;;;;5080900;28;20025;-80
2022/09/21 14:19:32;;;;;;;5.00;2.42;;;;;;;;;;5076306;28;20052;-80
2022/09/21 14:22:05;;;;;;;5.35;2.70;;;;;;;;;;5080095;28;20098;-81
2022/09/21 14:24:32;;;;;;;;;;;;;;;;;;5099331;28;20036;-81
2022/09/21 14:27:34;;;;;;;4.20;2.20;;;;;;;;;;5099937;28;19904;-81
2022/09/21 14:30:01;;;;;;;4.05;2.25;;;;;;;;;;4993542;28;20030;-80
2022/09/21 14:33:12;;;;;;;4.20;2.40;;;;;;;;;;4995413;28;20039;-81
2022/09/21 14:35:42;;;;;;;3.70;2.00;;;;;;;;;;4981163;28;20051;-81
2022/09/21 14:38:27;;;;;;;4.90;2.10;;;;;;;;;;4964634;28;20039;-81
2022/09/21 14:40:59;;;;;;;3.78;1.63;;;;;;;;;;4979680;28;20035;-80
2022/09/21 14:43:37;;;;;;;3.80;2.03;;;;;;;;;;4978883;28;20019;-79
2022/09/21 14:46:12;;;;;;;5.40;2.17;;;;;;;;;;4978019;28;20041;-81
2022/09/21 14:48:49;;;;;;;3.40;1.70;;;;;;;;;;4979758;28;20027;-79
2022/09/21 14:51:30;;;;;;;3.85;1.80;;;;;;;;;;4980757;28;20066;-80
2022/09/21 14:54:25;;;;;;;3.65;2.00;;;;;;;;;;4964201;28;20051;-80
2022/09/21 14:56:57;;;;;;;4.00;1.75;;;;;;;;;;4963491;28;20031;-83
2022/09/21 14:59:37;;;;;;;3.13;1.60;;;;;;;;;;4979169;28;20039;-81
2022/09/21 15:02:20;;;;;;;4.00;1.70;;;;;;;;;;4980389;28;20177;-80
2022/09/21 15:05:17;;;;;;;3.90;1.75;;;;;;;;;;5015937;28;20101;-82
2022/09/21 15:10:57;;;;;;;4.45;2.30;;;;;;;;;;5056250;28;20093;-82
2022/09/21 15:13:42;;;;;;;5.13;2.40;;;;;;;;;;5075582;28;20036;-81
2022/09/21 15:16:20;;;;;;;4.95;2.78;;;;;;;;;;5075140;28;20017;-81
2022/09/21 15:18:47;;;;;;;3.80;2.00;;;;;;;;;;5075648;28;20049;-80
2022/09/21 15:21:21;;;;;;;3.88;2.10;;;;;;;;;;5094579;28;20036;-79
2022/09/21 15:23:47;;;;;;;4.32;2.55;;;;;;;;;;5094046;28;20020;-79
2022/09/21 15:26:19;;;;;;;3.72;1.83;;;;;;;;;;5087034;28;20042;-80
2022/09/21 15:28:48;;;;;;;5.50;2.53;;;;;;;;;;5096194;28;20020;-79
2022/09/21 15:31:15;;;;;;;4.35;2.33;;;;;;;;;;5103446;28;20096;-79
2022/09/21 15:33:46;;;;;;;3.83;2.03;;;;;;;;;;5107320;28;20431;-82
2022/09/21 15:36:12;;;;;;;4.47;2.40;;;;;;;;;;5115816;28;20031;-81
2022/09/21 15:38:41;;;;;;;5.20;2.75;;;;;;;;;;5092391;28;20050;-79
2022/09/21 15:41:18;;;;;;;5.40;3.30;;;;;;;;;;5118816;28;20036;-80
2022/09/21 15:43:54;;;;;;;6.50;3.17;;;;;;;;;;5111015;28;20020;-80
2022/09/21 15:46:21;;;;;;;5.68;2.72;;;;;;;;;;5109783;28;20017;-80
2022/09/21 15:48:48;;;;;;;4.68;2.50;;;;;;;;;;5111616;28;20024;-79
2022/09/21 15:51:15;;;;;;;4.63;2.63;;;;;;;;;;5108422;28;20590;-79
2022/09/21 15:53:45;;;;;;;4.65;2.30;;;;;;;;;;5108120;28;20266;-80
2022/09/21 15:56:18;;;;;;;5.28;2.35;;;;;;;;;;5113501;28;20036;-81
2022/09/21 15:58:48;;;;;;;4.25;2.08;;;;;;;;;;5110766;28;20031;-80
2022/09/21 16:01:15;;;;;;;6.25;2.03;;;;;;;;;;5092310;28;20123;-80
2022/09/21 16:03:42;;;;;;;4.40;2.20;;;;;;;;;;5110349;28;20020;-80
2022/09/21 16:06:25;;;;;;;4.18;2.03;;;;;;;;;;5109140;28;20036;-79
2022/09/21 16:08:51;;;;;;;;;;;;;;;;;;5090412;28;20089;-79
2022/09/21 16:11:26;;;;;;;4.63;2.10;;;;;;;;;;5093890;28;19908;-80
2022/09/21 16:17:12;;;;;;;3.50;1.70;;;;;;;;;;5109947;28;20060;-80
2022/09/21 16:19:50;;;;;;;3.42;1.98;;;;;;;;;;5094263;28;20036;-80
2022/09/21 16:22:20;;;;;;;4.25;2.00;;;;;;;;;;5108514;28;20024;-80
2022/09/21 16:25:26;;;;;;;3.63;1.60;;;;;;;;;;5104728;28;20036;-80
2022/09/21 16:27:55;;;;;;;3.85;1.70;;;;;;;;;;5086391;28;20491;-79
2022/09/21 16:30:39;;;;;;;3.22;1.40;;;;;;;;;;5099427;28;20032;-80
2022/09/21 16:33:24;;;;;;;3.20;1.52;;;;;;;;;;5110058;28;20093;-80
2022/09/21 16:35:50;;;;;;;3.60;1.40;;;;;;;;;;5100267;28;20123;-80
2022/09/21 16:38:17;;;;;;;4.43;1.55;;;;;;;;;;5100901;28;20037;-80
2022/09/21 16:40:45;;;;;;;3.55;1.60;;;;;;;;;;5099639;28;20111;-80
2022/09/21 16:43:11;;;;;;;3.47;1.55;;;;;;;;;;5092912;28;20066;-79
2022/09/21 16:45:37;;;;;;;4.20;1.52;;;;;;;;;;5092098;28;20015;-80
2022/09/21 16:48:06;;;;;;;3.20;1.50;;;;;;;;;;5114369;28;20034;-80
2022/09/21 16:50:32;;;;;;;3.50;1.48;;;;;;;;;;5100851;28;20028;-79
2022/09/21 16:52:58;;;;;;;3.40;1.65;;;;;;;;;;5100457;28;20031;-79
2022/09/21 16:55:24;;;;;;;2.88;1.40;;;;;;;;;;5099912;28;20020;-79
2022/09/21 16:57:50;;;;;;;4.43;1.65;;;;;;;;;;5095892;28;20571;-79